Latest Weather Observations for Territory Grape Farm

IDD60801

Issued at 6:05 am CST Thursday 2 October 2014 (issued every 30 minutes, with the page automatically refreshed every 10 minutes)

About weather observations | Map of weather stations | Latest weather observations for NT | Other Formats
Station Details ID: 015643 Name: TERRITORY GRAPE FARM Lat: -22.45 Lon: 133.64 Height: 565.6 m
Data from the previous 72 hours. | See also: Recent months at Territory Grape Farm
Date/Time
CST
Temp
°C
App
Temp
°C
Dew
Point
Rel
Hum
%
Delta-T
°C
Wind Press
QNH
hPa
Press
MSL
hPa
Rain
since 9 am
mm
Dir
 
Spd
km/h
Gust
km/h
Spd
kts
Gust
kts
02/06:00am 18.4 14.6 1.9 33 7.7 SE 11 13 6 7 1020.4 1017.2 0.0
02/05:30am 19.1 15.3 2.0 32 8.0 SE 11 15 6 8 1020.2 1017.0 0.0
02/05:00am 19.5 15.8 2.4 32 8.1 SE 11 15 6 8 1019.6 1016.4 0.0
02/04:30am 19.8 16.1 2.6 32 8.2 SE 11 17 6 9 1019.3 1016.1 0.0
02/04:00am 20.5 16.0 2.3 30 8.7 SE 15 20 8 11 1019.0 1015.8 0.0
02/03:30am 21.2 16.8 2.5 29 9.0 SE 15 22 8 12 1018.9 1015.7 0.0
02/03:00am 21.3 17.0 3.0 30 8.9 SE 15 20 8 11 1018.7 1015.5 0.0
02/02:30am 21.8 17.4 2.5 28 9.3 SE 15 20 8 11 1018.9 1015.7 0.0
02/02:00am 22.4 18.0 2.5 27 9.7 SE 15 19 8 10 1018.9 1015.7 0.0
02/01:30am 23.2 17.8 2.7 26 10.1 SE 20 26 11 14 1019.0 1015.8 0.0
02/01:00am 23.6 18.2 2.4 25 10.4 SE 20 28 11 15 1019.2 1016.0 0.0
02/12:30am 23.9 18.6 2.1 24 10.6 SE 19 24 10 13 1019.4 1016.2 0.0
02/12:00am 24.6 18.8 2.1 23 11.0 SE 22 28 12 15 1019.4 1016.2 0.0
 
Date/Time
CST
Temp
°C
App
Temp
°C
Dew
Point
Rel
Hum
%
Delta-T
°C
Wind Press
QNH
hPa
Press
MSL
hPa
Rain
since 9 am
mm
Dir
 
Spd
km/h
Gust
km/h
Spd
kts
Gust
kts
01/11:30pm 24.9 19.7 2.4 23 11.1 SE 19 28 10 15 1019.5 1016.3 0.0
01/11:00pm 25.6 20.2 2.3 22 11.6 SE 20 28 11 15 1019.5 1016.3 0.0
01/10:30pm 25.8 20.5 1.8 21 11.8 SE 19 26 10 14 1019.5 1016.3 0.0
01/10:00pm 26.5 21.1 1.0 19 12.4 SE 19 26 10 14 1019.4 1016.2 0.0
01/09:30pm 27.2 21.9 1.6 19 12.6 SE 19 24 10 13 1019.2 1016.0 0.0
01/09:00pm 28.1 21.7 0.8 17 13.4 SE 24 32 13 17 1019.0 1015.8 0.0
01/08:30pm 28.7 22.7 1.3 17 13.6 SE 22 30 12 16 1018.7 1015.5 0.0
01/08:00pm 29.6 22.8 1.1 16 14.2 SE 26 35 14 19 1018.2 1014.9 0.0
01/07:30pm 30.1 23.8 1.5 16 14.4 SE 24 30 13 16 1017.7 1014.5 0.0
01/07:00pm 30.8 25.2 1.2 15 14.9 SE 20 26 11 14 1017.4 1014.2 0.0
01/06:30pm 31.5 25.1 0.8 14 15.4 ESE 24 35 13 19 1017.0 1013.8 0.0
01/06:00pm 32.4 25.6 0.5 13 16.0 SE 26 37 14 20 1016.6 1013.3 0.0
01/05:30pm 33.3 26.2 1.2 13 16.4 ESE 28 41 15 22 1016.1 1012.9 0.0
01/05:00pm 33.9 26.7 0.5 12 16.9 ESE 28 41 15 22 1016.0 1012.8 0.0
01/04:30pm 34.1 27.9 -0.5 11 17.3 ESE 22 32 12 17 1015.8 1012.6 0.0
01/04:00pm 35.5 30.2 -0.8 10 18.2 E 17 30 9 16 1015.7 1012.5 0.0
01/03:30pm 35.8 30.1 0.8 11 18.0 ENE 20 28 11 15 1015.8 1012.6 0.0
01/03:00pm 35.5 30.0 0.6 11 17.9 E 19 24 10 13 1016.1 1012.9 0.0
01/02:30pm 35.0 29.4 1.4 12 17.4 NE 20 26 11 14 1016.6 1013.3 0.0
01/02:00pm 34.6 29.9 1.1 12 17.2 ENE 15 24 8 13 1017.1 1013.9 0.0
01/01:30pm 35.3 30.1 0.4 11 17.8 ESE 17 28 9 15 1017.4 1014.2 0.0
01/01:00pm 34.9 29.1 0.1 11 17.6 ESE 20 37 11 20 1017.9 1014.7 0.0
01/12:30pm 33.7 27.4 -0.8 11 17.1 ESE 22 39 12 21 1018.6 1015.4 0.0
01/12:00pm 33.6 27.3 -0.9 11 17.0 ESE 22 33 12 18 1019.1 1015.9 0.0
01/11:30am 32.8 25.7 -1.5 11 16.7 ESE 26 35 14 19 1019.5 1016.3 0.0
01/11:00am 31.9 24.5 -1.0 12 16.1 ESE 28 41 15 22 1019.8 1016.7 0.0
01/10:30am 31.0 23.2 -0.6 13 15.4 ESE 30 39 16 21 1020.2 1017.0 0.0
01/10:00am 29.8 21.5 -1.5 13 14.9 SE 32 44 17 24 1020.3 1017.1 0.0
01/09:30am 29.3 20.5 -0.9 14 14.5 ESE 35 48 19 26 1020.3 1017.1 0.0
01/09:00am 28.2 19.3 -1.8 14 14.0 ESE 35 44 19 24 1020.2 1017.7 0.0
01/08:44am 27.9 19.5 -1.1 15 13.8 ESE 33 52 18 28 1019.9 1017.5 0.0
01/08:30am 27.4 18.6 -1.5 15 13.5 SE 35 50 19 27 1019.7 1017.3 0.0
01/08:07am 26.2 17.7 -3.4 14 13.3 SE 32 54 17 29 1019.5 1017.1 0.0
01/08:00am 26.2 18.1 -3.4 14 13.3 SE 30 44 16 24 1019.5 1017.1 0.0
01/07:49am 25.4 17.6 -4.0 14 13.0 SE 28 43 15 23 1019.3 1016.9 0.0
01/07:30am 24.1 18.4 -4.1 15 12.3 SE 17 22 9 12 1019.1 1016.6 0.0
01/07:00am 20.9 16.0 -3.6 19 10.5 SSE 13 19 7 10 1018.6 1016.1 0.0
01/06:30am 19.6 15.0 -3.9 20 9.8 SSE 11 15 6 8 1018.0 1015.6 0.0
01/06:00am 19.9 15.3 -4.4 19 10.1 SE 11 13 6 7 1017.6 1015.1 0.0
01/05:30am 21.3 16.0 -4.0 18 10.8 SE 15 19 8 10 1017.1 1014.6 0.0
01/05:00am 22.4 17.1 -3.8 17 11.3 SE 15 19 8 10 1016.6 1014.1 0.0
01/04:30am 23.2 17.5 -4.0 16 11.8 SE 17 22 9 12 1016.3 1013.8 0.0
01/04:00am 23.5 18.1 -4.6 15 12.1 SE 15 22 8 12 1015.9 1013.4 0.0
01/03:30am 23.6 18.2 -4.5 15 12.1 SE 15 22 8 12 1015.7 1013.2 0.0
01/03:00am 23.8 18.2 -2.7 17 11.8 SE 17 22 9 12 1015.7 1013.2 0.0
01/02:30am 21.0 16.4 -4.2 18 10.6 SE 11 15 6 8 1015.9 1013.4 0.0
01/02:00am 23.3 18.3 -3.9 16 11.8 SE 13 15 7 8 1016.0 1013.5 0.0
01/01:30am 23.7 18.7 -4.4 15 12.1 SE 13 17 7 9 1016.1 1013.6 0.0
01/01:00am 25.9 20.5 -4.6 13 13.4 ESE 15 19 8 10 1016.4 1013.9 0.0
01/12:30am 27.6 21.5 -4.3 12 14.2 ESE 19 26 10 14 1016.4 1013.9 0.0
01/12:00am 23.7 19.1 -4.4 15 12.1 ESE 11 13 6 7 1016.5 1014.0 0.0
 
Date/Time
CST
Temp
°C
App
Temp
°C
Dew
Point
Rel
Hum
%
Delta-T
°C
Wind Press
QNH
hPa
Press
MSL
hPa
Rain
since 9 am
mm
Dir
 
Spd
km/h
Gust
km/h
Spd
kts
Gust
kts
30/11:30pm 26.3 21.3 -4.3 13 13.5 ESE 13 17 7 9 1016.5 1014.0 0.0
30/11:00pm 25.8 21.0 -5.7 12 13.5 E 11 19 6 10 1016.5 1014.0 0.0
30/10:30pm 28.7 24.0 -4.6 11 14.9 SSE 11 17 6 9 1016.4 1013.9 0.0
30/10:00pm 30.1 25.8 -4.8 10 15.8 SSW 9 15 5 8 1016.5 1014.0 0.0
30/09:38pm 30.6 24.4 -3.2 11 15.8 SW 20 32 11 17 1016.3 1013.8 0.0
30/09:30pm 25.1 21.1 -7.4 11 13.4 NW 6 19 3 10 1016.1 1013.6 0.0
30/09:00pm 24.2 20.1 -7.0 12 12.9 NE 7 9 4 5 1015.6 1013.1 0.0
30/08:30pm 25.4 21.7 -8.4 10 13.7 NNW 4 4 2 2 1015.2 1012.7 0.0
30/08:00pm 27.0 23.4 -7.2 10 14.4 NNW 4 6 2 3 1015.0 1012.5 0.0
30/07:30pm 28.8 25.6 -7.2 9 15.4 N 2 4 1 2 1014.6 1012.0 0.0
30/07:00pm 30.2 26.0 -7.7 8 16.3 NNE 7 9 4 5 1014.1 1011.6 0.0
30/06:30pm 33.2 30.0 -7.2 7 18.0 N 2 7 1 4 1013.8 1011.3 0.0
30/06:00pm 35.1 31.1 -7.8 6 19.2 NE 6 7 3 4 1013.4 1010.9 0.0
30/05:30pm 36.1 32.1 -7.1 6 19.7 N 6 11 3 6 1013.2 1010.7 0.0
30/05:00pm 36.9 33.0 -6.5 6 20.1 NNW 6 20 3 11 1013.0 1010.4 0.0
30/04:30pm 37.0 33.5 -6.5 6 20.2 N 4 7 2 4 1013.0 1010.4 0.0
30/04:00pm 36.8 32.3 -6.6 6 20.0 NNE 9 13 5 7 1013.1 1010.6 0.0
30/03:30pm 36.9 31.3 -6.5 6 20.1 W 15 22 8 12 1013.3 1010.8 0.0
30/03:00pm 36.8 32.9 -6.6 6 20.0 SE 6 11 3 6 1013.4 1010.9 0.0
30/02:30pm 36.6 32.7 -6.8 6 19.9 E 6 13 3 7 1013.7 1011.2 0.0
30/02:00pm 36.1 31.6 -7.1 6 19.7 ENE 9 20 5 11 1014.0 1011.5 0.0
30/01:30pm 36.5 32.0 -6.8 6 19.9 ENE 9 19 5 10 1014.5 1011.9 0.0
30/01:00pm 36.5 32.0 -6.8 6 19.9 E 9 17 5 9 1014.9 1012.4 0.0
30/12:30pm 36.1 31.6 -7.1 6 19.7 E 9 15 5 8 1015.4 1012.9 0.0
30/12:00pm 35.4 31.6 -5.6 7 19.0 NNW 6 17 3 9 1015.9 1013.4 0.0
30/11:30am 34.7 30.5 -8.1 6 19.0 SW 7 13 4 7 1016.5 1014.0 0.0
30/11:00am 34.2 29.7 -6.5 7 18.5 W 9 17 5 9 1016.9 1014.4 0.0
30/10:30am 33.0 28.6 -5.6 8 17.6 NW 9 17 5 9 1017.2 1014.7 0.0
30/10:00am 31.4 27.3 -6.8 8 16.9 W 7 11 4 6 1017.4 1014.9 0.0
30/09:30am 29.8 26.3 -6.4 9 15.9 SW 4 6 2 3 1017.5 1015.0 0.0
30/09:00am 27.6 23.7 -6.7 10 14.7 SSW 6 11 3 6 1017.5 1015.0 0.0
30/08:30am 26.1 22.8 -7.9 10 14.0 NW 2 7 1 4 1017.3 1014.8 0.0
30/08:00am 23.8 20.2 -7.3 12 12.7 N 4 6 2 3 1016.8 1014.3 0.0
30/07:30am 20.7 17.2 -6.0 16 10.9 NE 4 6 2 3 1016.5 1014.0 0.0
30/07:00am 15.9 11.8 -6.4 21 8.6 E 7 9 4 5 1016.0 1013.5 0.0
30/06:30am 13.7 9.3 -5.9 25 7.4 ESE 9 15 5 8 1015.6 1013.1 0.0
30/06:00am 13.0 10.3 -6.0 26 7.1 CALM 0 2 0 1 1015.2 1012.7 0.0
30/05:30am 14.0 11.2 -7.4 22 7.9 CALM 0 0 0 0 1014.7 1012.2 0.0
30/05:00am 15.0 11.0 -7.1 21 8.3 WSW 6 7 3 4 1014.4 1011.8 0.0
30/04:30am 15.4 11.3 -6.2 22 8.3 SW 7 17 4 9 1014.0 1011.5 0.0
30/04:00am 15.5 11.6 -6.1 22 8.3 NNE 6 6 3 3 1013.5 1011.0 0.0
30/03:30am 15.3 12.2 -5.7 23 8.1 S 2 4 1 2 1013.5 1011.0 0.0
30/03:00am 15.0 11.5 -5.9 23 8.0 NNE 4 7 2 4 1013.6 1011.1 0.0
30/02:30am 15.6 12.1 -6.0 22 8.3 NW 4 6 2 3 1013.7 1011.2 0.0
30/02:00am 16.5 13.3 -7.2 19 9.0 W 2 4 1 2 1014.0 1011.5 0.0
30/01:30am 17.4 13.4 -7.1 18 9.4 W 6 7 3 4 1014.1 1011.6 0.0
30/01:00am 18.0 14.4 -7.4 17 9.8 N 4 6 2 3 1014.4 1011.8 0.0
30/12:30am 20.1 16.5 -7.3 15 10.8 N 4 6 2 3 1014.7 1012.2 0.0
30/12:00am 20.9 16.4 -6.7 15 11.1 NNE 9 11 5 6 1014.8 1012.3 0.0
 
Date/Time
CST
Temp
°C
App
Temp
°C
Dew
Point
Rel
Hum
%
Delta-T
°C
Wind Press
QNH
hPa
Press
MSL
hPa
Rain
since 9 am
mm
Dir
 
Spd
km/h
Gust
km/h
Spd
kts
Gust
kts
29/11:30pm 21.2 16.7 -6.4 15 11.2 NNE 9 11 5 6 1015.0 1012.5 0.0
29/11:00pm 21.5 17.1 -6.2 15 11.3 NE 9 9 5 5 1015.1 1012.6 0.0
29/10:30pm 22.6 18.5 -6.2 14 11.9 NE 7 9 4 5 1015.2 1012.7 0.0
29/10:00pm 22.4 17.9 -6.4 14 11.8 E 9 11 5 6 1015.2 1012.7 0.0
29/09:30pm 23.6 19.1 -6.4 13 12.5 N 9 11 5 6 1015.1 1012.6 0.0
29/09:00pm 24.2 19.7 -7.0 12 12.9 NE 9 15 5 8 1015.0 1012.5 0.0
29/08:30pm 23.8 21.0 -7.3 12 12.7 CALM 0 0 0 0 1014.6 1012.0 0.0
29/08:00pm 27.1 23.8 -4.7 12 14.1 SSW 4 6 2 3 1014.2 1011.7 0.0
29/07:30pm 26.9 23.8 -6.0 11 14.2 SSW 2 4 1 2 1013.8 1011.3 0.0
29/07:00pm 28.6 24.6 -7.3 9 15.3 SSW 6 6 3 3 1013.4 1010.9 0.0
29/06:30pm 32.6 29.4 -7.6 7 17.7 SSW 2 4 1 2 1013.2 1010.7 0.0
29/06:00pm 34.8 32.1 -6.0 7 18.7 CALM 0 2 0 1 1012.9 1010.3 0.0
29/05:30pm 34.7 30.8 -6.1 7 18.7 ESE 6 9 3 5 1012.6 1010.0 0.0
29/05:00pm 35.0 31.2 -5.9 7 18.8 ESE 6 9 3 5 1012.6 1010.0 0.0
29/04:30pm 35.1 30.1 -7.8 6 19.2 SSE 11 19 6 10 1012.3 1009.8 0.0
29/04:00pm 35.5 31.5 -7.5 6 19.4 NW 6 13 3 7 1012.3 1009.8 0.0
29/03:30pm 35.5 31.3 -7.5 6 19.4 SSE 7 19 4 10 1012.6 1010.0 0.0
29/03:00pm 35.3 30.3 -7.7 6 19.3 NE 11 20 6 11 1012.8 1010.2 0.0
29/02:30pm 34.8 30.4 -6.0 7 18.7 E 9 17 5 9 1013.0 1010.4 0.0
29/02:00pm 34.3 30.4 -6.4 7 18.5 SSE 6 11 3 6 1013.4 1010.9 0.0
29/01:30pm 34.5 29.7 -6.3 7 18.6 E 11 17 6 9 1014.1 1011.6 0.0
29/01:00pm 34.2 30.1 -6.5 7 18.5 SE 7 13 4 7 1014.5 1011.9 0.0
29/12:30pm 33.5 29.4 -7.0 7 18.1 NNW 7 15 4 8 1015.1 1012.6 0.0
29/12:00pm 33.7 28.8 -6.8 7 18.2 NNW 11 20 6 11 1015.6 1013.1 0.0
29/11:30am 32.7 28.1 -7.6 7 17.7 NW 9 19 5 10 1016.1 1013.6 0.0
29/11:00am 32.6 28.0 -7.6 7 17.7 N 9 17 5 9 1016.6 1014.1 0.0
29/10:30am 31.1 26.4 -8.7 7 16.9 NNW 9 17 5 9 1016.9 1014.4 0.0
29/10:00am 29.8 25.6 -8.0 8 16.1 NW 7 11 4 6 1017.1 1014.6 0.0
29/09:30am 29.0 25.3 -8.5 8 15.7 W 4 9 2 5 1017.1 1014.6 0.0
29/09:00am 26.5 21.8 -8.9 9 14.4 WSW 9 13 5 7 1017.1 1014.6 0.0
29/08:30am 23.5 18.8 -8.6 11 12.8 SW 9 11 5 6 1017.0 1014.5 0.0
29/08:00am 20.7 16.7 -7.7 14 11.2 SW 6 9 3 5 1016.9 1014.4 0.0
29/07:30am 16.9 13.3 -7.5 18 9.2 S 4 6 2 3 1016.5 1014.0 0.0
29/07:00am 13.4 9.2 -7.9 22 7.7 SSW 7 9 4 5 1016.0 1013.5 0.0
29/06:30am 11.7 8.1 -7.6 25 6.9 SSW 4 6 2 3 1015.8 1013.3 0.0

Other Formats:

Comma delimited format used in spreadsheet applications
http://www.bom.gov.au/fwo/IDD60801/IDD60801.94328.axf

JavaScript Object Notation format (JSON) in row-major order
http://www.bom.gov.au/fwo/IDD60801/IDD60801.94328.json